Time;durP1;ratioP1;P1;durP2;ratioP2;P2;SDS_P1;SDS_P2;PMS_P1;PMS_P2;Temp;Humidity;BMP_temperature;BMP_pressure;BME280_temperature;BME280_humidity;BME280_pressure;Samples;Min_cycle;Max_cycle;Signal;HPM_P1;HPM_P2
2023/06/01 00:01:33;;;;;;;8.53;2.60;;;;;;;16.20;59.53;100762.78;5006667;28;20283;-66
2023/06/01 00:03:59;;;;;;;3.10;2.20;;;;;;;16.14;60.05;100767.28;5005780;28;20232;-68
2023/06/01 00:06:30;;;;;;;4.30;2.27;;;;;;;16.12;59.29;100756.59;5010695;28;20209;-68
2023/06/01 00:08:57;;;;;;;3.00;2.10;;;;;;;16.12;59.71;100767.28;5013447;28;20188;-69
2023/06/01 00:11:25;;;;;;;6.03;2.40;;;;;;;16.08;59.51;100762.84;5003481;28;20192;-68
2023/06/01 00:13:52;;;;;;;3.60;2.43;;;;;;;16.24;58.92;100761.88;4999110;28;20216;-67
2023/06/01 00:16:19;;;;;;;5.97;2.50;;;;;;;16.32;58.39;100752.94;5005630;28;20196;-68
2023/06/01 00:18:45;;;;;;;4.10;2.20;;;;;;;16.40;58.48;100753.78;5003972;28;20219;-68
2023/06/01 00:21:12;;;;;;;3.47;2.30;;;;;;;16.32;58.89;100759.19;5011348;28;20473;-67
2023/06/01 00:23:40;;;;;;;5.27;2.37;;;;;;;16.13;59.51;100757.47;5011056;28;20216;-69
2023/06/01 00:26:08;;;;;;;4.93;2.50;;;;;;;16.05;59.87;100754.84;5009153;28;20283;-66
2023/06/01 00:28:34;;;;;;;2.80;2.30;;;;;;;15.95;60.17;100756.63;5003348;28;20193;-70
2023/06/01 00:31:01;;;;;;;4.60;2.60;;;;;;;15.95;60.07;100753.06;5001933;28;20201;-68
2023/06/01 00:33:28;;;;;;;2.83;2.23;;;;;;;15.84;60.72;100749.53;5004446;28;20596;-68
2023/06/01 00:35:55;;;;;;;4.63;2.37;;;;;;;15.82;60.95;100764.69;5004746;28;20227;-68
2023/06/01 00:38:21;;;;;;;3.80;2.67;;;;;;;15.78;61.47;100754.91;5003495;28;20227;-68
2023/06/01 00:40:51;;;;;;;3.93;2.50;;;;;;;15.59;61.82;100751.34;5010837;28;20196;-68
2023/06/01 00:43:18;;;;;;;5.50;2.40;;;;;;;15.48;62.64;100750.44;5007601;28;20246;-68
2023/06/01 00:45:45;;;;;;;3.97;2.40;;;;;;;15.47;62.55;100746.88;5006575;28;20196;-68
2023/06/01 00:48:14;;;;;;;5.10;3.17;;;;;;;15.52;63.00;100746.88;5007151;28;20295;-68
2023/06/01 00:50:41;;;;;;;5.30;2.67;;;;;;;15.40;63.37;100747.78;5009811;28;20204;-68
2023/06/01 00:53:14;;;;;;;5.97;2.50;;;;;;;15.43;62.67;100746.91;5011183;28;20220;-67
2023/06/01 00:55:41;;;;;;;3.27;2.30;;;;;;;15.25;64.03;100735.34;5007128;28;20226;-68
2023/06/01 00:58:07;;;;;;;6.37;2.40;;;;;;;15.38;63.38;100743.34;5009851;28;20200;-68
2023/06/01 01:00:34;;;;;;;3.63;2.47;;;;;;;15.31;63.57;100742.47;5009425;28;20305;-67
2023/06/01 01:03:06;;;;;;;3.90;2.20;;;;;;;15.32;63.91;100750.47;5009770;28;20239;-68
2023/06/01 01:05:34;;;;;;;4.77;2.20;;;;;;;15.33;63.90;100746.03;5005159;28;20200;-69
2023/06/01 01:08:25;;;;;;;5.83;2.40;;;;;;;15.49;63.21;100746.88;5010591;28;20235;-69
2023/06/01 01:10:55;;;;;;;5.30;2.30;;;;;;;15.40;63.59;100742.44;5007736;28;20196;-69
2023/06/01 01:13:30;;;;;;;7.60;2.50;;;;;;;15.33;64.11;100746.91;5008033;28;20220;-70
2023/06/01 01:16:02;;;;;;;6.27;2.40;;;;;;;15.28;64.42;100739.81;5010919;28;20621;-68
2023/06/01 01:18:54;;;;;;;5.27;2.47;;;;;;;15.18;64.96;100743.34;5004660;28;20200;-68
2023/06/01 01:21:29;;;;;;;3.57;2.13;;;;;;;15.04;65.50;100738.88;5001886;28;20279;-68
2023/06/01 01:24:02;;;;;;;4.67;2.70;;;;;;;15.07;65.52;100737.09;5011734;28;20223;-68
2023/06/01 01:26:53;;;;;;;4.30;2.50;;;;;;;15.04;65.88;100743.34;5010658;28;20227;-68
2023/06/01 01:29:23;;;;;;;5.30;2.40;;;;;;;14.97;66.19;100746.88;5009498;28;20196;-68
2023/06/01 01:31:50;;;;;;;4.60;2.70;;;;;;;15.09;66.12;100732.66;5004982;28;20656;-68
2023/06/01 01:34:20;;;;;;;9.07;2.90;;;;;;;15.04;66.30;100744.22;5008945;28;20212;-68
2023/06/01 01:36:47;;;;;;;8.10;2.30;;;;;;;14.97;66.29;100736.22;5006908;28;20204;-68
2023/06/01 01:39:13;;;;;;;4.30;2.33;;;;;;;14.83;67.29;100736.22;5009232;28;20314;-68
2023/06/01 01:41:39;;;;;;;4.13;2.30;;;;;;;14.74;67.74;100742.38;5003729;28;20199;-68
2023/06/01 01:44:06;;;;;;;4.07;2.30;;;;;;;14.58;68.11;100737.94;5008278;28;20221;-68
2023/06/01 01:46:40;;;;;;;4.70;2.50;;;;;;;14.50;69.00;100734.34;5002086;28;20196;-69
2023/06/01 01:49:17;;;;;;;2.37;1.97;;;;;;;14.41;69.46;100735.19;5008447;28;20244;-68
2023/06/01 01:51:46;;;;;;;5.20;1.90;;;;;;;14.30;70.27;100725.34;5006001;28;20205;-67
2023/06/01 01:54:13;;;;;;;3.60;2.20;;;;;;;14.18;71.33;100731.53;5010296;28;20220;-68
2023/06/01 01:56:41;;;;;;;5.03;2.23;;;;;;;14.03;72.40;100728.81;4999387;28;20200;-69
2023/06/01 01:59:08;;;;;;;5.87;2.30;;;;;;;13.90;72.86;100721.63;5006647;28;20350;-67
2023/06/01 02:01:35;;;;;;;4.33;2.33;;;;;;;13.79;73.29;100721.56;5008404;28;20231;-69
2023/06/01 02:04:04;;;;;;;14.33;4.50;;;;;;;13.69;74.38;100733.06;5002190;28;20224;-68
2023/06/01 02:06:32;;;;;;;3.67;2.40;;;;;;;13.59;75.17;100732.09;5008958;28;20204;-68
2023/06/01 02:08:59;;;;;;;3.40;2.20;;;;;;;13.61;76.03;100742.75;5006703;28;20195;-66
2023/06/01 02:11:26;;;;;;;4.50;2.30;;;;;;;13.57;76.40;100722.31;5007731;28;20600;-68
2023/06/01 02:13:52;;;;;;;4.73;2.87;;;;;;;13.56;76.39;100723.19;5010365;28;20224;-69
2023/06/01 02:16:19;;;;;;;6.27;2.40;;;;;;;13.48;76.98;100728.47;5010916;28;20211;-68
2023/06/01 02:18:45;;;;;;;4.20;2.30;;;;;;;13.40;77.37;100723.09;5008275;28;20200;-68
2023/06/01 02:21:13;;;;;;;4.33;2.50;;;;;;;13.32;78.21;100721.25;5009056;28;20660;-68
2023/06/01 02:23:40;;;;;;;4.83;2.20;;;;;;;13.23;79.35;100715.88;5010587;28;20215;-68
2023/06/01 02:26:10;;;;;;;2.90;2.27;;;;;;;13.14;80.77;100725.50;5010147;28;20680;-67
2023/06/01 02:28:42;;;;;;;4.43;2.43;;;;;;;13.09;82.14;100721.03;5003434;28;20203;-68
2023/06/01 02:31:09;;;;;;;3.00;2.13;;;;;;;13.05;82.50;100717.47;5010663;28;20205;-68
2023/06/01 02:33:38;;;;;;;5.07;2.50;;;;;;;13.02;82.99;100722.75;5008789;28;20266;-68
2023/06/01 02:36:05;;;;;;;4.90;2.40;;;;;;;12.98;83.45;100722.72;5005675;28;20203;-69
2023/06/01 02:38:31;;;;;;;4.03;2.40;;;;;;;13.01;84.06;100726.28;5003756;28;20217;-68
2023/06/01 02:40:57;;;;;;;4.20;2.23;;;;;;;12.98;83.84;100720.94;5008785;28;20552;-68
2023/06/01 02:43:24;;;;;;;6.33;2.50;;;;;;;12.96;84.35;100724.47;5006569;28;20215;-67
2023/06/01 02:45:50;;;;;;;4.40;2.63;;;;;;;12.90;85.17;100722.66;5005826;28;20206;-68
2023/06/01 02:48:17;;;;;;;4.23;2.90;;;;;;;12.85;85.71;100713.75;5009383;28;20230;-68
2023/06/01 02:50:43;;;;;;;4.57;2.60;;;;;;;12.90;87.00;100712.03;5003228;28;20192;-68
2023/06/01 02:53:10;;;;;;;4.03;2.47;;;;;;;12.92;88.88;100709.38;5006337;28;20308;-68
2023/06/01 02:55:36;;;;;;;4.97;2.50;;;;;;;12.88;90.11;100719.09;5008668;28;20222;-68
2023/06/01 02:58:03;;;;;;;5.97;2.77;;;;;;;12.94;90.74;100718.25;5012599;28;20210;-67
2023/06/01 03:00:30;;;;;;;3.30;2.47;;;;;;;12.89;90.16;100717.31;5005476;28;20220;-68
2023/06/01 03:02:56;;;;;;;5.20;2.57;;;;;;;12.78;89.92;100714.53;5005568;28;20231;-69
2023/06/01 03:05:23;;;;;;;3.47;2.40;;;;;;;12.65;90.06;100713.53;5006491;28;20199;-68
2023/06/01 03:07:50;;;;;;;5.30;3.00;;;;;;;12.57;90.70;100712.56;5005372;28;20207;-68
2023/06/01 03:10:16;;;;;;;4.60;2.50;;;;;;;12.51;91.09;100716.06;5003884;28;20194;-68
2023/06/01 03:12:43;;;;;;;3.83;2.60;;;;;;;12.48;91.59;100724.00;5012201;28;20287;-68
2023/06/01 03:15:09;;;;;;;4.20;2.80;;;;;;;12.39;91.92;100709.69;5004913;28;20199;-69
2023/06/01 03:17:36;;;;;;;4.50;2.60;;;;;;;12.32;92.58;100714.06;5003639;28;20653;-68
2023/06/01 03:20:02;;;;;;;7.17;3.07;;;;;;;12.32;96.08;100719.38;4992004;28;20279;-66
2023/06/01 03:22:29;;;;;;;7.43;3.03;;;;;;;12.25;96.92;100712.22;5005563;28;20218;-68
2023/06/01 03:24:55;;;;;;;5.47;2.90;;;;;;;12.17;98.13;100717.44;5008843;28;20200;-69
2023/06/01 03:27:22;;;;;;;6.33;3.60;;;;;;;12.18;99.47;100715.69;5006820;28;20205;-68
2023/06/01 03:29:48;;;;;;;5.70;3.00;;;;;;;12.19;100.00;100718.34;5005577;28;20190;-68
2023/06/01 03:32:15;;;;;;;6.00;3.40;;;;;;;12.17;100.00;100722.75;5005236;28;20196;-69
2023/06/01 03:34:41;;;;;;;8.00;2.83;;;;;;;12.17;100.00;100722.75;5006094;28;20204;-67
2023/06/01 03:37:08;;;;;;;6.27;3.10;;;;;;;12.18;100.00;100719.22;4999858;28;20202;-68
2023/06/01 03:39:35;;;;;;;5.03;3.30;;;;;;;12.17;100.00;100720.09;5008832;28;20251;-67
2023/06/01 03:42:02;;;;;;;6.57;3.93;;;;;;;12.19;100.00;100714.81;4998690;28;20209;-69
2023/06/01 03:44:28;;;;;;;5.03;3.40;;;;;;;12.20;100.00;100711.28;5006186;28;20216;-68
2023/06/01 03:46:55;;;;;;;4.63;3.17;;;;;;;12.23;100.00;100714.84;5003516;28;20199;-69
2023/06/01 03:49:21;;;;;;;6.47;3.37;;;;;;;12.27;100.00;100717.53;5007670;28;20220;-68
2023/06/01 03:51:47;;;;;;;6.97;3.50;;;;;;;12.32;100.00;100721.13;4996567;28;20218;-68
2023/06/01 03:54:14;;;;;;;7.23;3.73;;;;;;;12.33;100.00;100720.25;5006888;28;20678;-69
2023/06/01 03:56:41;;;;;;;5.73;3.17;;;;;;;12.37;100.00;100720.31;5008044;28;20281;-68
2023/06/01 03:59:10;;;;;;;7.07;4.00;;;;;;;12.43;100.00;100716.88;5004075;28;20198;-69
2023/06/01 04:01:39;;;;;;;5.77;3.77;;;;;;;12.49;100.00;100719.59;5001915;28;20203;-68
2023/06/01 04:04:08;;;;;;;7.83;3.80;;;;;;;12.65;100.00;100729.47;5003131;28;20278;-67
2023/06/01 04:06:36;;;;;;;9.33;4.00;;;;;;;12.69;100.00;100727.75;5004862;28;20292;-68
2023/06/01 04:09:06;;;;;;;8.17;3.90;;;;;;;12.72;100.00;100727.78;5006269;28;20290;-68
2023/06/01 04:11:33;;;;;;;5.30;3.57;;;;;;;12.73;100.00;100734.88;5007613;28;20594;-69
2023/06/01 04:14:02;;;;;;;5.17;3.40;;;;;;;12.73;100.00;100742.84;5003010;28;20608;-68
2023/06/01 04:16:28;;;;;;;6.10;3.63;;;;;;;12.76;100.00;100737.56;5003074;28;20695;-69
2023/06/01 04:18:55;;;;;;;5.37;3.13;;;;;;;12.76;100.00;100745.53;5000320;28;20223;-69
2023/06/01 04:21:22;;;;;;;4.70;3.27;;;;;;;12.80;100.00;100736.72;5001965;28;20223;-68
2023/06/01 04:23:49;;;;;;;4.87;3.23;;;;;;;12.83;100.00;100734.09;5006871;28;20217;-67
2023/06/01 04:26:17;;;;;;;5.47;3.40;;;;;;;12.90;100.00;100735.94;5005105;28;20203;-67
2023/06/01 04:28:45;;;;;;;10.33;3.70;;;;;;;12.97;100.00;100736.88;5002078;28;20200;-68
2023/06/01 04:31:19;;;;;;;5.73;3.70;;;;;;;13.01;100.00;100734.28;5004640;28;20293;-67
2023/06/01 04:33:52;;;;;;;5.43;3.37;;;;;;;13.14;100.00;100745.91;5002343;28;20230;-67
2023/06/01 04:36:21;;;;;;;5.13;3.83;;;;;;;13.19;100.00;100736.22;5002463;28;20212;-68
2023/06/01 04:38:52;;;;;;;5.50;3.40;;;;;;;13.29;100.00;100742.53;5002192;28;20454;-68
2023/06/01 04:41:23;;;;;;;5.20;3.77;;;;;;;13.34;100.00;100743.44;5002974;28;20229;-68
2023/06/01 04:43:52;;;;;;;6.03;3.57;;;;;;;13.39;100.00;100744.38;5008117;28;20223;-68
2023/06/01 04:46:19;;;;;;;5.17;3.17;;;;;;;13.46;100.00;100744.41;5001665;28;20236;-68
2023/06/01 04:48:46;;;;;;;6.00;3.43;;;;;;;13.55;100.00;100742.69;5004108;28;20680;-67
2023/06/01 04:51:19;;;;;;;7.20;3.60;;;;;;;13.65;100.00;100736.59;5006605;28;20556;-68
2023/06/01 04:53:49;;;;;;;6.20;3.20;;;;;;;13.76;100.00;100748.19;5002480;28;20646;-68
2023/06/01 04:56:17;;;;;;;5.20;2.90;;;;;;;13.88;100.00;100748.25;5004179;28;20207;-68
2023/06/01 04:58:47;;;;;;;4.47;2.93;;;;;;;13.97;100.00;100742.06;5010000;28;20219;-68
2023/06/01 05:01:15;;;;;;;5.47;3.07;;;;;;;14.05;100.00;100740.38;5007951;28;20334;-67
2023/06/01 05:03:43;;;;;;;9.07;3.27;;;;;;;14.16;99.80;100735.06;5035900;23;20304;-66
2023/06/01 05:06:11;;;;;;;3.80;2.93;;;;;;;14.27;99.04;100744.88;5016728;28;20246;-66
2023/06/01 05:08:41;;;;;;;6.03;3.43;;;;;;;14.37;98.02;100740.47;5009101;28;20204;-66
2023/06/01 05:11:09;;;;;;;4.50;3.00;;;;;;;14.54;96.30;100741.47;5006521;28;20200;-66
2023/06/01 05:13:37;;;;;;;5.60;3.30;;;;;;;14.67;94.71;100739.72;5013438;28;20216;-66
2023/06/01 05:16:04;;;;;;;7.17;2.90;;;;;;;14.83;93.54;100744.22;5013006;28;20207;-66
2023/06/01 05:18:34;;;;;;;5.90;3.20;;;;;;;15.01;92.86;100741.56;5007078;28;20195;-67
2023/06/01 05:21:01;;;;;;;9.30;3.07;;;;;;;15.22;91.36;100742.47;5000969;28;20216;-65
2023/06/01 05:23:29;;;;;;;4.40;3.07;;;;;;;15.39;89.00;100739.78;5005704;28;20986;-66
2023/06/01 05:26:05;;;;;;;4.20;2.93;;;;;;;15.54;88.22;100748.66;5007796;28;20599;-66
2023/06/01 05:28:33;;;;;;;6.83;3.00;;;;;;;15.65;88.30;100749.59;5005490;28;20196;-66
2023/06/01 05:31:02;;;;;;;4.83;3.07;;;;;;;15.85;87.13;100745.97;5005639;28;20197;-66
2023/06/01 05:33:29;;;;;;;3.87;3.03;;;;;;;15.87;88.04;100738.84;5004330;28;20299;-66
2023/06/01 05:35:55;;;;;;;4.80;2.90;;;;;;;15.93;87.31;100730.81;5005917;28;20283;-65
2023/06/01 05:38:22;;;;;;;5.93;2.77;;;;;;;16.02;86.44;100740.59;5011755;28;20275;-65
2023/06/01 05:40:49;;;;;;;6.57;2.60;;;;;;;16.25;85.63;100736.94;5010057;28;20220;-65
2023/06/01 05:43:15;;;;;;;6.83;2.70;;;;;;;16.60;84.60;100738.56;5009025;28;20295;-66
2023/06/01 05:45:42;;;;;;;6.47;3.00;;;;;;;17.02;81.84;100737.41;5008309;28;20703;-66
2023/06/01 05:48:08;;;;;;;4.50;3.00;;;;;;;17.71;79.82;100732.41;5003823;28;20288;-67
2023/06/01 05:50:35;;;;;;;4.43;2.90;;;;;;;18.97;73.08;100739.75;5008605;28;20202;-67
2023/06/01 05:53:01;;;;;;;8.27;3.47;;;;;;;19.76;68.47;100735.75;5011174;28;20216;-67
2023/06/01 05:55:28;;;;;;;11.53;3.33;;;;;;;19.75;67.70;100730.41;5009398;28;20295;-67
2023/06/01 05:57:54;;;;;;;5.30;3.37;;;;;;;19.49;68.33;100739.78;5010359;28;20196;-67
2023/06/01 06:00:20;;;;;;;8.10;3.40;;;;;;;19.62;67.85;100748.56;5009168;28;20217;-67
2023/06/01 06:02:47;;;;;;;10.60;3.40;;;;;;;19.27;69.50;100744.63;5011785;28;20520;-67
2023/06/01 06:05:14;;;;;;;10.57;3.40;;;;;;;18.92;71.08;100750.56;5019211;28;20199;-67
2023/06/01 06:07:40;;;;;;;8.17;3.30;;;;;;;18.66;72.10;100758.97;5011491;28;20199;-67
2023/06/01 06:10:07;;;;;;;6.17;3.03;;;;;;;18.51;71.73;100753.78;5006949;28;20192;-65
2023/06/01 06:12:34;;;;;;;7.07;2.60;;;;;;;18.48;70.64;100748.47;4993749;28;20568;-65
2023/06/01 06:15:00;;;;;;;5.13;2.27;;;;;;;18.46;69.38;100744.91;4997708;28;20481;-66
2023/06/01 06:17:27;;;;;;;8.87;2.90;;;;;;;18.58;69.20;100751.91;5010966;28;20200;-66
2023/06/01 06:19:53;;;;;;;4.93;2.30;;;;;;;18.71;68.63;100746.38;5017079;28;20223;-65
2023/06/01 06:22:20;;;;;;;9.03;3.40;;;;;;;18.81;71.47;100748.91;5009826;28;20196;-65
2023/06/01 06:24:47;;;;;;;9.90;3.40;;;;;;;18.89;72.42;100747.03;5016289;28;20555;-65
2023/06/01 06:27:13;;;;;;;7.40;3.03;;;;;;;18.93;71.15;100738.91;5008665;28;20263;-66
2023/06/01 06:29:40;;;;;;;7.00;2.70;;;;;;;19.01;65.86;100745.03;5017415;28;20573;-65
2023/06/01 06:32:06;;;;;;;8.43;2.50;;;;;;;19.09;65.44;100743.13;5013814;28;20204;-65
2023/06/01 06:34:36;;;;;;;6.63;2.77;;;;;;;19.21;64.80;100744.75;5012934;28;20699;-66
2023/06/01 06:37:07;;;;;;;4.17;2.40;;;;;;;19.28;64.24;100743.72;5010062;28;20303;-68
2023/06/01 06:39:34;;;;;;;4.87;2.00;;;;;;;19.47;63.27;100748.78;5006550;28;20212;-66
2023/06/01 06:42:02;;;;;;;3.20;2.10;;;;;;;19.77;62.32;100745.59;5003787;28;20768;-67
2023/06/01 06:44:28;;;;;;;5.50;2.57;;;;;;;19.96;61.54;100740.72;5003839;28;20752;-65
2023/06/01 06:46:55;;;;;;;4.00;2.40;;;;;;;20.00;61.36;100750.50;5004348;28;20196;-65
2023/06/01 06:49:21;;;;;;;5.07;2.43;;;;;;;20.06;61.69;100755.78;5010615;28;20571;-65
2023/06/01 06:51:47;;;;;;;5.50;2.20;;;;;;;20.15;61.29;100746.66;5010519;28;20231;-65
2023/06/01 06:54:14;;;;;;;3.73;2.33;;;;;;;20.18;59.64;100747.47;5006222;28;20220;-66
2023/06/01 06:56:40;;;;;;;4.63;2.53;;;;;;;20.34;58.46;100743.53;5011940;28;21031;-66
2023/06/01 06:59:08;;;;;;;5.77;2.50;;;;;;;20.38;59.08;100748.84;5006754;28;20203;-65
2023/06/01 07:01:35;;;;;;;6.60;2.80;;;;;;;20.53;58.84;100743.19;5009025;28;20311;-65
2023/06/01 07:04:05;;;;;;;5.37;2.37;;;;;;;20.76;57.37;100753.44;5007739;28;20227;-66
2023/06/01 07:06:33;;;;;;;7.07;2.53;;;;;;;21.47;54.36;100748.16;5011475;28;20196;-66
2023/06/01 07:09:00;;;;;;;4.28;2.47;;;;;;;23.51;44.91;100746.63;5008897;28;20203;-65
2023/06/01 07:11:27;;;;;;;7.97;2.40;;;;;;;26.21;38.05;100743.16;5005226;28;20196;-65
2023/06/01 07:13:55;;;;;;;5.20;2.53;;;;;;;28.35;33.17;100744.28;5006472;28;20672;-65
2023/06/01 07:16:21;;;;;;;5.55;2.38;;;;;;;29.25;31.00;100747.41;5006777;28;20577;-66
2023/06/01 07:18:48;;;;;;;5.45;3.00;;;;;;;30.25;29.19;100745.03;5007094;28;20204;-65
2023/06/01 07:21:14;;;;;;;4.40;2.30;;;;;;;30.48;29.03;100743.63;5009018;28;20262;-66
2023/06/01 07:23:45;;;;;;;4.53;2.50;;;;;;;30.86;28.14;100749.38;5006617;28;20220;-66
2023/06/01 07:26:11;;;;;;;4.97;2.70;;;;;;;30.51;27.91;100749.75;5006085;28;20313;-66
2023/06/01 07:28:38;;;;;;;5.25;2.58;;;;;;;31.28;27.19;100742.97;5011862;28;20250;-65
2023/06/01 07:31:05;;;;;;;4.07;2.40;;;;;;;32.11;25.86;100749.13;5007106;28;20291;-66
2023/06/01 07:33:33;;;;;;;11.27;2.97;;;;;;;32.37;24.94;100748.16;5004739;28;20216;-65
2023/06/01 07:36:00;;;;;;;10.95;2.78;;;;;;;31.98;24.87;100743.59;5006068;28;20283;-66
2023/06/01 07:38:26;;;;;;;8.27;2.83;;;;;;;32.06;25.31;100741.22;5013414;28;20303;-66
2023/06/01 07:40:55;;;;;;;11.43;2.55;;;;;;;32.43;24.50;100746.88;5009332;28;20220;-66
2023/06/01 07:43:22;;;;;;;13.65;3.22;;;;;;;32.77;24.61;100747.13;5005092;28;20706;-65
2023/06/01 07:45:48;;;;;;;10.00;3.30;;;;;;;33.17;24.26;100743.22;5016546;28;20196;-66
2023/06/01 07:48:14;;;;;;;9.30;3.03;;;;;;;33.69;23.81;100741.16;5007729;28;20200;-66
2023/06/01 07:50:41;;;;;;;10.85;2.78;;;;;;;32.39;24.36;100746.19;5009844;28;20254;-65
2023/06/01 07:53:08;;;;;;;13.55;2.85;;;;;;;32.44;24.48;100745.00;5005945;28;20322;-65
2023/06/01 07:55:35;;;;;;;6.88;2.50;;;;;;;32.53;24.76;100745.22;5012890;28;20197;-66
2023/06/01 07:58:02;;;;;;;7.47;2.47;;;;;;;32.13;24.42;100741.66;4997317;28;20664;-69
2023/06/01 08:00:28;;;;;;;8.00;2.38;;;;;;;32.19;24.43;100735.75;5022520;28;20226;-69
2023/06/01 08:02:55;;;;;;;6.57;2.47;;;;;;;32.16;25.51;100737.81;5016058;28;20235;-68
2023/06/01 08:05:22;;;;;;;5.20;2.40;;;;;;;31.86;25.29;100733.50;5001261;28;20565;-69
2023/06/01 08:07:48;;;;;;;7.28;2.33;;;;;;;31.17;26.19;100729.09;5012757;28;20215;-70
2023/06/01 08:10:15;;;;;;;5.18;2.30;;;;;;;30.23;27.78;100720.56;5001315;28;20203;-68
2023/06/01 08:12:44;;;;;;;4.93;2.13;;;;;;;30.32;27.17;100730.03;5008803;28;20204;-69
2023/06/01 08:15:14;;;;;;;3.15;2.08;;;;;;;29.90;28.02;100726.22;5005198;28;20204;-69
2023/06/01 08:17:40;;;;;;;6.60;2.40;;;;;;;29.28;29.32;100730.88;5012449;28;20725;-70
2023/06/01 08:20:10;;;;;;;9.65;2.63;;;;;;;28.94;29.55;100729.22;5008799;28;20254;-69
2023/06/01 08:22:37;;;;;;;4.47;2.10;;;;;;;27.87;31.11;100717.81;5006054;28;20692;-69
2023/06/01 08:25:05;;;;;;;4.18;2.08;;;;;;;27.90;32.31;100717.66;4995632;28;20204;-69
2023/06/01 08:27:31;;;;;;;8.88;2.60;;;;;;;28.08;31.51;100713.97;5000832;28;20717;-69
2023/06/01 08:29:58;;;;;;;6.90;2.35;;;;;;;27.77;32.19;100717.44;4997606;28;20643;-69
2023/06/01 08:32:24;;;;;;;5.97;2.58;;;;;;;27.25;32.66;100716.50;5002184;28;20193;-69
2023/06/01 08:34:53;;;;;;;5.00;2.28;;;;;;;26.25;34.19;100708.59;5006032;28;20727;-66
2023/06/01 08:37:19;;;;;;;10.05;2.47;;;;;;;26.36;34.96;100711.72;4999076;28;20200;-66
2023/06/01 08:39:46;;;;;;;4.80;2.03;;;;;;;26.32;35.07;100711.91;4999755;28;20196;-66
2023/06/01 08:42:25;;;;;;;5.10;2.67;;;;;;;26.64;34.68;100704.97;5010910;28;20223;-66
2023/06/01 08:44:55;;;;;;;5.57;2.25;;;;;;;26.83;34.48;100706.75;5008432;28;20226;-65
2023/06/01 08:47:24;;;;;;;4.10;2.10;;;;;;;27.04;33.97;100698.50;5006837;28;20199;-66
2023/06/01 08:49:51;;;;;;;4.30;1.90;;;;;;;26.97;33.61;100697.03;5007806;28;20196;-66
2023/06/01 08:52:20;;;;;;;6.22;2.35;;;;;;;26.58;36.06;100694.41;5008221;28;20188;-67
2023/06/01 08:54:47;;;;;;;4.97;2.10;;;;;;;26.59;35.86;100696.19;4997621;28;20242;-66
2023/06/01 08:57:15;;;;;;;6.53;2.15;;;;;;;26.59;35.66;100691.63;4999246;28;20201;-67
2023/06/01 08:59:45;;;;;;;6.85;2.00;;;;;;;26.22;33.53;100693.31;5005059;28;20687;-65
2023/06/01 09:02:11;;;;;;;6.63;2.22;;;;;;;26.10;33.82;100688.47;5007671;28;20223;-65
2023/06/01 09:04:41;;;;;;;3.83;2.00;;;;;;;26.09;34.00;100689.41;5008372;28;20223;-66
2023/06/01 09:07:08;;;;;;;4.57;2.00;;;;;;;26.11;33.02;100687.50;5009481;28;20197;-66
2023/06/01 09:09:37;;;;;;;5.00;2.33;;;;;;;26.08;32.51;100689.50;5006482;28;20200;-65
2023/06/01 09:12:25;;;;;;;3.47;2.05;;;;;;;26.01;30.29;100685.25;5011320;28;20313;-66
2023/06/01 09:15:16;;;;;;;3.60;2.10;;;;;;;26.17;30.08;100670.94;5018151;28;20494;-64
2023/06/01 09:17:48;;;;;;;2.92;1.90;;;;;;;26.08;30.17;100675.91;5007565;28;20563;-65
2023/06/01 09:20:25;;;;;;;5.47;2.38;;;;;;;26.22;29.81;100681.56;5013667;28;20597;-65
2023/06/01 09:22:52;;;;;;;4.40;2.20;;;;;;;26.06;29.61;100676.00;5009951;28;20224;-65
2023/06/01 09:25:28;;;;;;;2.70;1.67;;;;;;;26.10;30.01;100671.28;5007366;28;20204;-66
2023/06/01 09:27:57;;;;;;;3.53;2.20;;;;;;;25.92;30.34;100678.44;5005350;28;20203;-66
2023/06/01 09:30:36;;;;;;;3.42;1.98;;;;;;;26.01;30.06;100667.16;5009376;28;20626;-65
2023/06/01 09:33:15;;;;;;;3.60;1.90;;;;;;;25.83;29.17;100658.03;5011038;28;20230;-65
2023/06/01 09:35:47;;;;;;;6.00;2.05;;;;;;;25.72;30.52;100670.31;5010891;28;20200;-65
2023/06/01 09:38:22;;;;;;;3.42;1.90;;;;;;;25.87;29.76;100666.91;5014543;28;20224;-65
2023/06/01 09:41:03;;;;;;;4.80;1.77;;;;;;;25.74;26.48;100663.88;5003459;28;20223;-65
2023/06/01 09:43:36;;;;;;;6.10;1.90;;;;;;;25.82;26.66;100660.81;5009447;28;20224;-66
2023/06/01 09:46:07;;;;;;;4.18;1.65;;;;;;;25.95;26.29;100656.56;5015335;28;20253;-67
2023/06/01 09:48:34;;;;;;;3.50;1.80;;;;;;;25.79;25.77;100661.81;5006657;28;20233;-66
2023/06/01 09:51:01;;;;;;;3.35;2.00;;;;;;;26.01;26.30;100649.97;5010035;28;20196;-66
2023/06/01 09:53:39;;;;;;;2.97;1.80;;;;;;;25.93;26.19;100659.34;5006190;28;20216;-66
2023/06/01 09:56:06;;;;;;;4.45;1.90;;;;;;;26.15;26.98;100658.38;5013567;28;20199;-65
2023/06/01 09:58:34;;;;;;;3.45;1.77;;;;;;;26.11;28.05;100656.78;5008187;28;20216;-65
2023/06/01 10:01:01;;;;;;;4.40;1.95;;;;;;;26.06;28.55;100656.09;5014175;28;20230;-65
2023/06/01 10:03:28;;;;;;;4.57;1.80;;;;;;;26.24;28.88;100656.13;5010489;28;20587;-65
2023/06/01 10:05:57;;;;;;;4.78;1.92;;;;;;;26.34;29.83;100656.59;5012508;28;20192;-65
2023/06/01 10:08:24;;;;;;;3.78;1.85;;;;;;;26.29;29.58;100652.28;5007268;28;20670;-65
2023/06/01 10:10:50;;;;;;;4.82;2.13;;;;;;;26.53;30.02;100660.19;5009916;28;20228;-66
2023/06/01 10:13:17;;;;;;;2.83;1.75;;;;;;;26.39;29.02;100646.38;5008408;28;20238;-65
2023/06/01 10:15:44;;;;;;;6.65;1.98;;;;;;;26.50;29.23;100645.88;5006581;28;20272;-66
2023/06/01 10:18:10;;;;;;;2.75;2.05;;;;;;;26.62;28.52;100644.41;5007226;28;20196;-64
2023/06/01 10:20:39;;;;;;;3.55;1.90;;;;;;;26.75;29.21;100645.56;5008365;28;20196;-65
2023/06/01 10:23:06;;;;;;;3.00;2.10;;;;;;;26.64;30.33;100632.50;5008649;28;20248;-66
2023/06/01 10:25:47;;;;;;;4.18;2.10;;;;;;;26.64;32.13;100640.66;5012383;28;20579;-65
2023/06/01 10:28:14;;;;;;;3.47;1.92;;;;;;;26.75;31.66;100623.81;5013152;28;20217;-66
2023/06/01 10:30:41;;;;;;;2.95;1.80;;;;;;;26.84;32.20;100629.69;5013700;28;20214;-66
2023/06/01 10:33:07;;;;;;;2.95;1.90;;;;;;;26.80;29.70;100633.50;5006961;28;20216;-65
2023/06/01 10:35:51;;;;;;;3.70;2.10;;;;;;;26.80;30.46;100633.50;5011968;28;20291;-65
2023/06/01 10:38:20;;;;;;;3.85;1.95;;;;;;;27.01;30.92;100631.59;5010596;28;20205;-66
2023/06/01 10:40:47;;;;;;;2.45;1.80;;;;;;;26.93;29.89;100627.47;5011202;28;20283;-65
2023/06/01 10:43:35;;;;;;;5.53;2.10;;;;;;;26.70;30.78;100628.59;5010779;28;20758;-65
2023/06/01 10:46:02;;;;;;;4.28;1.65;;;;;;;26.53;30.76;100638.47;5010490;28;20270;-65
2023/06/01 10:48:52;;;;;;;3.88;2.17;;;;;;;26.39;31.06;100627.38;5011707;28;20192;-66
2023/06/01 10:51:20;;;;;;;2.67;2.00;;;;;;;26.73;30.42;100617.56;5006174;28;20200;-66
2023/06/01 10:53:46;;;;;;;4.57;2.10;;;;;;;26.76;31.54;100620.13;5002998;28;20342;-65
2023/06/01 10:56:23;;;;;;;4.75;1.90;;;;;;;27.11;30.49;100608.38;5003322;28;20215;-66
2023/06/01 10:59:08;;;;;;;5.43;2.00;;;;;;;27.22;32.13;100616.03;5008006;28;20204;-66
2023/06/01 11:01:43;;;;;;;10.10;2.28;;;;;;;27.38;31.11;100616.97;4998840;28;20220;-67
2023/06/01 11:04:10;;;;;;;4.72;2.20;;;;;;;27.47;29.76;100607.44;5007956;28;20220;-67
2023/06/01 11:06:42;;;;;;;2.78;1.83;;;;;;;27.68;29.95;100611.78;4998531;28;20284;-66
2023/06/01 11:09:10;;;;;;;4.53;2.13;;;;;;;27.39;30.61;100610.56;4997359;28;20212;-66
2023/06/01 11:11:52;;;;;;;3.65;2.13;;;;;;;27.52;31.05;100612.63;5007412;28;20196;-66
2023/06/01 11:14:23;;;;;;;3.33;1.92;;;;;;;27.41;29.44;100605.03;5012530;28;20226;-66
2023/06/01 11:16:51;;;;;;;4.07;2.17;;;;;;;27.46;30.09;100606.56;5005513;28;20385;-67
2023/06/01 11:19:26;;;;;;;4.38;2.15;;;;;;;27.54;30.57;100599.81;5004192;28;20210;-66
2023/06/01 11:22:01;;;;;;;7.78;2.60;;;;;;;27.76;30.24;100604.06;5007563;28;20215;-65
2023/06/01 11:24:36;;;;;;;4.28;2.15;;;;;;;28.02;30.23;100594.50;5009962;28;20224;-65
2023/06/01 11:27:08;;;;;;;3.72;2.10;;;;;;;28.34;29.87;100599.97;5008062;28;20231;-66
2023/06/01 11:29:35;;;;;;;2.50;1.90;;;;;;;28.18;29.10;100599.94;5004317;28;20215;-66
2023/06/01 11:32:05;;;;;;;3.75;2.10;;;;;;;27.97;28.61;100599.28;5006283;28;20303;-67